Time;durP1;ratioP1;P1;durP2;ratioP2;P2;SDS_P1;SDS_P2;PMS_P1;PMS_P2;Temp;Humidity;BMP_temperature;BMP_pressure;BME280_temperature;BME280_humidity;BME280_pressure;Samples;Min_cycle;Max_cycle;Signal;HPM_P1;HPM_P2
2023/07/26 00:01:41;;;;;;;4.78;1.40;;;18.10;99.90;;;;;;5019478;28;20186;-74
2023/07/26 00:04:07;;;;;;;6.13;1.30;;;18.00;99.90;;;;;;5005879;28;20672;-73
2023/07/26 00:06:33;;;;;;;4.35;1.33;;;18.00;99.90;;;;;;5002051;28;20216;-73
2023/07/26 00:08:58;;;;;;;6.65;1.55;;;18.00;99.90;;;;;;5002627;28;20228;-74
2023/07/26 00:11:24;;;;;;;4.25;1.42;;;18.00;99.90;;;;;;5002640;28;20213;-74
2023/07/26 00:13:49;;;;;;;3.63;1.30;;;17.90;99.90;;;;;;5020610;28;20188;-74
2023/07/26 00:16:15;;;;;;;3.30;1.35;;;17.80;99.90;;;;;;5003748;28;20181;-74
2023/07/26 00:18:41;;;;;;;4.65;1.40;;;17.70;99.90;;;;;;5025261;28;21034;-73
2023/07/26 00:21:07;;;;;;;4.70;1.27;;;17.70;99.90;;;;;;5010346;28;20279;-73
2023/07/26 00:23:33;;;;;;;4.10;1.33;;;17.60;99.90;;;;;;5009990;28;20684;-73
2023/07/26 00:25:58;;;;;;;6.45;1.38;;;17.50;99.90;;;;;;5008078;28;20180;-73
2023/07/26 00:28:24;;;;;;;4.25;1.60;;;17.50;99.90;;;;;;5024258;28;20220;-73
2023/07/26 00:30:50;;;;;;;4.43;1.40;;;17.50;99.90;;;;;;5006070;28;20205;-74
2023/07/26 00:33:16;;;;;;;4.32;1.55;;;17.40;99.90;;;;;;5007718;28;20205;-73
2023/07/26 00:35:43;;;;;;;3.67;1.40;;;17.40;99.90;;;;;;5004326;28;20300;-73
2023/07/26 00:38:09;;;;;;;2.60;1.30;;;17.40;99.90;;;;;;5008372;28;20239;-73
2023/07/26 00:40:38;;;;;;;5.35;1.48;;;17.30;99.90;;;;;;5003782;28;20251;-74
2023/07/26 00:43:05;;;;;;;5.57;1.38;;;17.30;99.90;;;;;;5007556;28;20689;-73
2023/07/26 00:45:34;;;;;;;3.28;1.20;;;17.20;99.90;;;;;;5001084;28;20598;-74
2023/07/26 00:48:00;;;;;;;4.20;1.20;;;17.20;99.90;;;;;;5002905;28;20256;-73
2023/07/26 00:50:26;;;;;;;1.70;1.10;;;17.20;99.90;;;;;;5001104;28;20216;-75
2023/07/26 00:52:52;;;;;;;2.55;1.40;;;17.10;99.90;;;;;;4999416;28;20231;-73
2023/07/26 00:55:17;;;;;;;3.80;1.45;;;17.00;99.90;;;;;;5026500;28;20196;-73
2023/07/26 00:57:46;;;;;;;3.92;1.30;;;17.00;99.90;;;;;;5015177;28;20251;-72
2023/07/26 01:00:13;;;;;;;3.22;1.20;;;17.00;99.90;;;;;;5011212;28;20209;-73
2023/07/26 01:02:38;;;;;;;5.05;1.60;;;16.90;99.90;;;;;;5006626;28;20249;-74
2023/07/26 01:05:05;;;;;;;2.83;1.27;;;16.90;99.90;;;;;;5007384;28;20181;-73
2023/07/26 01:07:58;;;;;;;3.13;1.20;;;16.90;99.90;;;;;;5007727;28;20204;-74
2023/07/26 01:10:46;;;;;;;7.68;1.38;;;16.90;99.90;;;;;;5024057;28;20228;-73
2023/07/26 01:13:25;;;;;;;5.03;1.13;;;16.70;99.90;;;;;;5003088;28;20205;-73
2023/07/26 01:15:51;;;;;;;2.75;1.20;;;16.70;99.90;;;;;;5003275;28;20272;-74
2023/07/26 01:18:18;;;;;;;5.10;1.33;;;16.60;99.90;;;;;;5004674;28;20902;-73
2023/07/26 01:20:44;;;;;;;3.35;1.30;;;16.60;99.90;;;;;;5000585;28;20225;-72
2023/07/26 01:23:10;;;;;;;5.50;1.77;;;16.60;99.90;;;;;;5003246;28;20289;-73
2023/07/26 01:25:36;;;;;;;6.88;2.30;;;16.60;99.90;;;;;;5000526;28;20667;-73
2023/07/26 01:28:02;;;;;;;2.60;1.48;;;16.60;99.90;;;;;;5000814;28;20237;-73
2023/07/26 01:30:30;;;;;;;3.00;1.20;;;16.50;99.90;;;;;;5001509;28;20320;-74
2023/07/26 01:33:03;;;;;;;4.57;1.55;;;16.50;99.90;;;;;;5008747;28;20636;-73
2023/07/26 01:35:29;;;;;;;5.07;1.60;;;16.50;99.90;;;;;;5008711;28;20235;-73
2023/07/26 01:37:56;;;;;;;3.78;1.50;;;16.40;99.90;;;;;;5007694;28;20691;-73
2023/07/26 01:40:22;;;;;;;5.22;1.45;;;16.50;99.90;;;;;;5006977;28;20640;-73
2023/07/26 01:42:49;;;;;;;6.00;1.60;;;16.40;99.90;;;;;;5003898;28;20304;-73
2023/07/26 01:45:15;;;;;;;3.97;1.80;;;16.40;99.90;;;;;;5006242;28;20562;-74
2023/07/26 01:47:41;;;;;;;2.95;1.30;;;16.40;99.90;;;;;;5004384;28;20224;-74
2023/07/26 01:50:07;;;;;;;4.65;1.38;;;16.40;99.90;;;;;;5003841;28;20201;-73
2023/07/26 01:52:33;;;;;;;2.28;1.40;;;16.30;99.90;;;;;;5004301;28;20177;-73
2023/07/26 01:54:59;;;;;;;4.60;1.33;;;16.30;99.90;;;;;;5004278;28;20209;-73
2023/07/26 01:57:25;;;;;;;3.90;1.50;;;16.20;99.90;;;;;;5003448;28;20705;-74
2023/07/26 01:59:54;;;;;;;8.93;1.65;;;16.20;99.90;;;;;;5005694;28;20229;-72
2023/07/26 02:02:20;;;;;;;5.75;1.52;;;16.20;99.90;;;;;;5002165;28;20216;-74
2023/07/26 02:04:46;;;;;;;4.18;1.73;;;16.10;99.90;;;;;;4997267;28;20174;-74
2023/07/26 02:07:12;;;;;;;3.25;1.80;;;16.20;99.90;;;;;;4999174;28;20557;-73
2023/07/26 02:09:38;;;;;;;8.57;1.88;;;16.10;99.90;;;;;;5007914;28;20215;-74
2023/07/26 02:12:05;;;;;;;4.78;1.52;;;16.00;99.90;;;;;;5005903;28;20220;-72
2023/07/26 02:14:30;;;;;;;4.03;1.50;;;16.00;99.90;;;;;;5007475;28;20219;-74
2023/07/26 02:16:56;;;;;;;6.65;1.63;;;16.00;99.90;;;;;;5020742;28;20622;-73
2023/07/26 02:19:22;;;;;;;3.83;1.80;;;16.00;99.90;;;;;;5006408;28;20201;-74
2023/07/26 02:21:47;;;;;;;2.92;1.60;;;16.00;99.90;;;;;;5019134;28;20247;-74
2023/07/26 02:24:13;;;;;;;6.93;1.60;;;16.00;99.90;;;;;;5003361;28;20228;-73
2023/07/26 02:26:44;;;;;;;4.93;1.90;;;16.00;99.90;;;;;;5004030;28;20263;-74
2023/07/26 02:29:10;;;;;;;6.30;1.88;;;16.00;99.90;;;;;;4997811;28;20225;-74
2023/07/26 02:31:36;;;;;;;6.40;1.63;;;16.00;99.90;;;;;;5002850;28;20196;-73
2023/07/26 02:34:02;;;;;;;3.38;1.58;;;16.00;99.90;;;;;;5000243;28;20213;-73
2023/07/26 02:36:27;;;;;;;5.75;1.88;;;16.00;99.90;;;;;;5001919;28;20227;-74
2023/07/26 02:38:53;;;;;;;3.20;1.73;;;16.00;99.90;;;;;;4999777;28;20224;-73
2023/07/26 02:41:18;;;;;;;7.68;1.83;;;15.90;99.90;;;;;;5001026;28;20224;-73
2023/07/26 02:43:44;;;;;;;4.57;1.60;;;15.80;99.90;;;;;;5001205;28;20185;-74
2023/07/26 02:46:10;;;;;;;5.97;1.73;;;15.80;99.90;;;;;;5014815;28;20237;-73
2023/07/26 02:48:36;;;;;;;7.63;2.47;;;15.80;99.90;;;;;;5008488;28;20227;-74
2023/07/26 02:51:01;;;;;;;4.57;2.08;;;15.80;99.90;;;;;;5006985;28;20220;-73
2023/07/26 02:53:27;;;;;;;4.78;1.80;;;15.80;99.90;;;;;;5006349;28;20213;-73
2023/07/26 02:55:53;;;;;;;6.60;2.05;;;15.80;99.90;;;;;;5004354;28;20181;-72
2023/07/26 02:58:18;;;;;;;5.35;2.22;;;15.80;99.90;;;;;;5005191;28;20204;-73
2023/07/26 03:00:44;;;;;;;5.13;1.98;;;15.70;99.90;;;;;;5001700;28;20210;-74
2023/07/26 03:03:09;;;;;;;4.65;2.15;;;15.70;99.90;;;;;;5002165;28;20657;-73
2023/07/26 03:05:38;;;;;;;2.53;1.55;;;15.80;99.90;;;;;;5018409;28;20224;-74
2023/07/26 03:08:04;;;;;;;3.95;1.45;;;15.70;99.90;;;;;;5000246;28;20213;-72
2023/07/26 03:10:31;;;;;;;6.28;1.92;;;15.60;99.90;;;;;;5002637;28;20208;-74
2023/07/26 03:12:57;;;;;;;5.85;1.63;;;15.60;99.90;;;;;;4998562;28;20210;-74
2023/07/26 03:15:22;;;;;;;5.35;1.80;;;15.60;99.90;;;;;;5015726;28;20219;-73
2023/07/26 03:17:48;;;;;;;4.45;1.80;;;15.60;99.90;;;;;;5012399;28;20214;-73
2023/07/26 03:20:14;;;;;;;4.70;1.75;;;15.60;99.90;;;;;;4997536;28;20296;-73
2023/07/26 03:22:39;;;;;;;5.70;1.90;;;15.50;99.90;;;;;;5015213;28;20561;-73
2023/07/26 03:25:05;;;;;;;5.07;1.83;;;15.50;99.90;;;;;;5010093;28;20254;-73
2023/07/26 03:27:31;;;;;;;8.13;2.30;;;15.60;99.90;;;;;;5008904;28;20216;-74
2023/07/26 03:29:57;;;;;;;5.82;2.20;;;15.50;99.90;;;;;;5006780;28;20270;-73
2023/07/26 03:32:22;;;;;;;7.10;2.20;;;15.50;99.90;;;;;;5009159;28;20690;-74
2023/07/26 03:34:48;;;;;;;5.07;1.88;;;15.50;99.90;;;;;;5008855;28;20181;-73
2023/07/26 03:37:13;;;;;;;4.07;1.58;;;15.40;99.90;;;;;;5008871;28;20295;-73
2023/07/26 03:39:39;;;;;;;4.88;1.88;;;15.40;99.90;;;;;;5018775;28;20346;-74
2023/07/26 03:42:05;;;;;;;4.82;1.83;;;15.40;99.90;;;;;;5004463;28;20263;-73
2023/07/26 03:44:30;;;;;;;6.10;2.20;;;15.40;99.90;;;;;;5005271;28;20212;-74
2023/07/26 03:46:56;;;;;;;5.97;1.67;;;15.50;99.90;;;;;;5018148;28;20174;-72
2023/07/26 03:49:22;;;;;;;3.75;1.80;;;15.50;99.90;;;;;;5008633;28;20291;-74
2023/07/26 03:51:47;;;;;;;3.42;1.80;;;15.50;99.90;;;;;;5002867;28;21034;-73
2023/07/26 03:54:13;;;;;;;8.18;2.47;;;15.60;99.90;;;;;;5002594;28;20209;-74
2023/07/26 03:56:38;;;;;;;5.15;1.85;;;15.60;99.90;;;;;;5002071;28;20721;-73
2023/07/26 03:59:04;;;;;;;9.32;1.80;;;15.50;99.90;;;;;;5007950;28;20201;-72
2023/07/26 04:01:30;;;;;;;3.95;1.75;;;15.60;99.90;;;;;;5011317;28;20263;-73
2023/07/26 04:03:55;;;;;;;6.95;1.98;;;15.70;99.90;;;;;;5009630;28;20204;-73
2023/07/26 04:06:21;;;;;;;3.83;1.73;;;15.70;99.90;;;;;;5006789;28;20299;-73
2023/07/26 04:08:46;;;;;;;5.75;2.05;;;15.70;99.90;;;;;;5004870;28;20587;-73
2023/07/26 04:11:12;;;;;;;9.40;2.20;;;15.70;99.90;;;;;;5006191;28;20225;-74
2023/07/26 04:13:38;;;;;;;5.57;1.45;;;15.70;99.90;;;;;;5018556;28;20181;-73
2023/07/26 04:16:15;;;;;;;6.50;2.33;;;15.60;99.90;;;;;;5004909;28;20212;-72
2023/07/26 04:18:40;;;;;;;4.95;2.08;;;15.60;99.90;;;;;;4997990;28;20633;-74
2023/07/26 04:21:06;;;;;;;6.88;1.98;;;15.70;99.90;;;;;;5017264;28;20284;-73
2023/07/26 04:23:32;;;;;;;6.55;2.40;;;15.70;99.90;;;;;;5003650;28;20687;-73
2023/07/26 04:25:57;;;;;;;4.35;1.98;;;15.70;99.90;;;;;;5002099;28;20177;-73
2023/07/26 04:28:23;;;;;;;4.15;2.00;;;15.70;99.90;;;;;;5003597;28;20212;-73
2023/07/26 04:30:48;;;;;;;4.35;1.67;;;15.80;99.90;;;;;;5018914;28;20239;-73
2023/07/26 04:33:14;;;;;;;5.10;1.98;;;16.00;99.90;;;;;;5000336;28;20232;-74
2023/07/26 04:35:40;;;;;;;7.97;1.90;;;16.00;99.90;;;;;;5007386;28;20201;-73
2023/07/26 04:38:06;;;;;;;4.57;2.03;;;16.10;99.90;;;;;;5009388;28;20530;-73
2023/07/26 04:40:31;;;;;;;6.57;2.10;;;16.20;99.90;;;;;;5019296;28;20545;-74
2023/07/26 04:42:57;;;;;;;6.40;1.98;;;16.20;99.90;;;;;;5008662;28;20209;-73
2023/07/26 04:45:22;;;;;;;5.88;2.05;;;16.30;99.90;;;;;;5007464;28;21307;-73
2023/07/26 04:47:48;;;;;;;6.72;2.00;;;16.40;99.90;;;;;;5005038;28;20798;-73
2023/07/26 04:50:13;;;;;;;4.35;1.90;;;16.50;99.90;;;;;;5004986;28;20258;-74
2023/07/26 04:52:39;;;;;;;6.72;2.13;;;16.80;99.90;;;;;;5006819;28;20180;-74
2023/07/26 04:55:05;;;;;;;7.28;2.08;;;16.90;99.90;;;;;;5003535;28;20201;-72
2023/07/26 04:57:31;;;;;;;6.40;2.08;;;17.20;99.90;;;;;;5007828;28;20209;-74
2023/07/26 04:59:57;;;;;;;3.05;1.70;;;17.30;99.90;;;;;;5000860;28;20222;-72
2023/07/26 05:02:22;;;;;;;3.38;1.70;;;17.40;99.90;;;;;;5003058;28;20222;-73
2023/07/26 05:04:48;;;;;;;3.10;1.90;;;17.40;99.90;;;;;;5001739;28;20291;-74
2023/07/26 05:07:13;;;;;;;5.15;2.13;;;17.60;99.90;;;;;;5003931;28;20217;-73
2023/07/26 05:09:39;;;;;;;6.53;1.92;;;17.80;99.90;;;;;;5001713;28;20209;-73
2023/07/26 05:12:05;;;;;;;5.13;1.63;;;18.40;99.90;;;;;;5006189;28;20205;-73
2023/07/26 05:14:31;;;;;;;4.45;1.75;;;18.50;99.90;;;;;;5009367;28;20564;-74
2023/07/26 05:16:56;;;;;;;4.28;2.20;;;18.70;99.90;;;;;;5008624;28;20235;-73
2023/07/26 05:19:22;;;;;;;5.82;1.98;;;18.80;99.90;;;;;;5007424;28;20263;-74
2023/07/26 05:21:48;;;;;;;6.43;1.50;;;18.70;99.90;;;;;;5007291;28;20774;-73
2023/07/26 05:24:13;;;;;;;7.65;1.90;;;18.80;99.90;;;;;;5005433;28;20715;-74
2023/07/26 05:26:39;;;;;;;9.60;2.05;;;18.80;99.90;;;;;;5016906;28;20288;-74
2023/07/26 05:29:04;;;;;;;5.22;2.05;;;18.70;99.90;;;;;;5016345;28;20217;-72
2023/07/26 05:31:30;;;;;;;6.40;1.90;;;18.80;99.90;;;;;;5005781;28;20204;-74
2023/07/26 05:33:55;;;;;;;3.95;1.80;;;19.40;99.90;;;;;;5003581;28;20220;-74
2023/07/26 05:36:21;;;;;;;3.47;1.50;;;20.50;99.90;;;;;;5002034;28;20271;-73
2023/07/26 05:38:47;;;;;;;4.95;1.80;;;21.40;99.90;;;;;;5006049;28;20213;-74
2023/07/26 05:41:12;;;;;;;5.57;1.77;;;22.70;99.90;;;;;;4999993;28;20220;-73
2023/07/26 05:43:38;;;;;;;4.80;2.10;;;23.40;99.90;;;;;;4997154;28;20182;-73
2023/07/26 05:46:03;;;;;;;5.65;2.13;;;23.60;99.90;;;;;;4998464;28;20210;-73
2023/07/26 05:48:30;;;;;;;4.63;1.52;;;23.30;99.90;;;;;;5004307;28;20216;-73
2023/07/26 05:50:55;;;;;;;7.32;2.33;;;22.60;99.90;;;;;;5008601;28;20608;-74
2023/07/26 05:53:21;;;;;;;4.43;1.70;;;22.50;99.90;;;;;;5007074;28;20220;-73
2023/07/26 05:55:46;;;;;;;6.20;2.08;;;23.00;99.90;;;;;;5008096;28;20173;-74
2023/07/26 05:58:12;;;;;;;6.03;1.95;;;23.50;99.90;;;;;;5005637;28;20812;-72
2023/07/26 06:00:38;;;;;;;3.72;1.70;;;23.60;99.90;;;;;;5005692;28;20227;-73
2023/07/26 06:03:03;;;;;;;6.53;1.85;;;23.50;99.90;;;;;;5004967;28;20209;-75
2023/07/26 06:05:29;;;;;;;4.93;1.60;;;23.90;99.90;;;;;;5002760;28;20232;-74
2023/07/26 06:07:54;;;;;;;4.10;1.65;;;23.20;99.90;;;;;;5017687;28;20201;-74
2023/07/26 06:10:20;;;;;;;7.70;2.13;;;22.80;99.90;;;;;;5017778;28;20672;-74
2023/07/26 06:12:46;;;;;;;3.20;1.55;;;22.90;99.90;;;;;;4999011;28;20205;-73
2023/07/26 06:15:11;;;;;;;4.72;2.00;;;23.20;99.90;;;;;;5002454;28;20285;-73
2023/07/26 06:17:38;;;;;;;3.75;1.60;;;23.90;99.90;;;;;;5002525;28;20208;-73
2023/07/26 06:20:05;;;;;;;3.22;1.95;;;24.30;99.90;;;;;;4999109;28;20213;-74
2023/07/26 06:22:30;;;;;;;5.13;1.52;;;24.40;99.90;;;;;;5006943;28;20257;-74
2023/07/26 06:24:56;;;;;;;3.45;1.40;;;24.90;99.90;;;;;;5012098;28;20305;-74
2023/07/26 06:27:28;;;;;;;4.13;1.60;;;25.90;99.90;;;;;;5006363;28;20211;-74
2023/07/26 06:29:53;;;;;;;4.28;1.50;;;26.40;99.90;;;;;;5015576;28;20225;-73
2023/07/26 06:32:20;;;;;;;2.85;1.33;;;27.00;99.90;;;;;;5006048;28;20232;-74
2023/07/26 06:34:46;;;;;;;4.43;1.50;;;28.00;99.90;;;;;;5017604;28;20177;-74
2023/07/26 06:37:11;;;;;;;4.70;1.52;;;27.80;99.90;;;;;;5005355;28;20201;-74
2023/07/26 06:39:37;;;;;;;4.85;1.70;;;28.70;99.90;;;;;;5003880;28;20219;-71
2023/07/26 06:42:03;;;;;;;3.97;1.77;;;29.00;99.90;;;;;;5014818;28;20243;-75
2023/07/26 06:44:29;;;;;;;3.03;1.60;;;29.50;99.90;;;;;;5001016;28;20264;-74
2023/07/26 06:46:54;;;;;;;4.32;1.98;;;29.90;99.50;;;;;;5018865;28;20173;-73
2023/07/26 06:49:20;;;;;;;2.83;1.35;;;29.40;99.30;;;;;;5000737;28;20210;-73
2023/07/26 06:51:45;;;;;;;3.08;1.38;;;28.80;99.00;;;;;;5015492;28;20263;-74
2023/07/26 06:54:11;;;;;;;5.18;1.60;;;28.20;99.30;;;;;;4999558;28;20232;-73
2023/07/26 06:56:36;;;;;;;3.03;1.10;;;28.80;99.90;;;;;;5001482;28;20292;-74
2023/07/26 06:59:08;;;;;;;3.42;1.40;;;28.90;98.70;;;;;;5013736;28;20207;-74
2023/07/26 07:01:34;;;;;;;2.92;1.27;;;29.50;97.40;;;;;;5004163;28;20689;-73
2023/07/26 07:03:59;;;;;;;5.82;1.88;;;29.70;97.20;;;;;;5008128;28;20292;-73
2023/07/26 07:06:25;;;;;;;4.10;1.63;;;29.20;97.10;;;;;;5008101;28;20212;-73
2023/07/26 07:08:50;;;;;;;3.97;1.40;;;29.20;96.80;;;;;;5006002;28;20224;-72
2023/07/26 07:11:16;;;;;;;3.05;1.50;;;28.70;97.60;;;;;;5005512;28;20224;-73
2023/07/26 07:13:41;;;;;;;3.03;1.15;;;28.20;98.00;;;;;;5006183;28;20177;-74
2023/07/26 07:16:07;;;;;;;3.20;1.60;;;28.00;98.30;;;;;;5005255;28;20240;-73
2023/07/26 07:18:33;;;;;;;4.00;1.33;;;28.00;98.40;;;;;;5003143;28;20209;-73
2023/07/26 07:21:00;;;;;;;4.80;2.45;;;27.70;99.00;;;;;;5019085;28;20326;-72
2023/07/26 07:23:27;;;;;;;2.63;1.45;;;27.50;99.20;;;;;;5000981;28;20206;-73
2023/07/26 07:25:52;;;;;;;3.80;1.30;;;26.70;99.90;;;;;;5005824;28;20180;-73
2023/07/26 07:28:18;;;;;;;3.35;1.55;;;26.20;99.90;;;;;;5001684;28;20205;-72
2023/07/26 07:30:44;;;;;;;1.77;1.02;;;25.20;99.90;;;;;;5003278;28;20216;-74
2023/07/26 07:33:09;;;;;;;3.35;1.55;;;24.80;99.90;;;;;;4999536;28;20205;-72
2023/07/26 07:35:35;;;;;;;4.05;1.60;;;24.00;99.90;;;;;;4999763;28;20213;-73
2023/07/26 07:38:01;;;;;;;2.22;1.35;;;24.00;99.90;;;;;;5005550;28;20551;-72
2023/07/26 07:40:26;;;;;;;4.65;1.55;;;24.40;99.90;;;;;;5014894;28;20255;-73
2023/07/26 07:42:52;;;;;;;2.50;1.45;;;25.40;99.90;;;;;;5007896;28;20251;-74
2023/07/26 07:45:18;;;;;;;2.65;1.30;;;26.50;99.90;;;;;;5006226;28;20997;-74
2023/07/26 07:47:43;;;;;;;3.63;1.25;;;27.60;99.90;;;;;;5005803;28;20217;-74
2023/07/26 07:50:09;;;;;;;3.80;1.08;;;28.20;99.80;;;;;;5005534;28;20564;-73
2023/07/26 07:52:35;;;;;;;2.20;1.05;;;28.20;98.40;;;;;;5005301;28;20193;-74
2023/07/26 07:55:00;;;;;;;3.17;1.33;;;28.50;98.00;;;;;;5004728;28;20224;-72
2023/07/26 07:57:26;;;;;;;4.72;1.60;;;27.40;99.00;;;;;;5001523;28;20202;-73
2023/07/26 07:59:51;;;;;;;2.88;1.38;;;27.80;98.50;;;;;;5014731;28;20251;-72
2023/07/26 08:02:17;;;;;;;5.80;1.60;;;27.90;98.50;;;;;;5000535;28;20279;-73
2023/07/26 08:04:43;;;;;;;3.08;1.25;;;27.60;98.60;;;;;;5001888;28;20192;-73
2023/07/26 08:07:09;;;;;;;2.97;1.30;;;26.70;98.90;;;;;;5016129;28;20216;-73
2023/07/26 08:09:34;;;;;;;3.28;1.63;;;26.40;99.70;;;;;;5001391;28;20249;-74
2023/07/26 08:12:00;;;;;;;2.03;1.05;;;26.50;99.60;;;;;;5003361;28;20272;-72
2023/07/26 08:14:26;;;;;;;2.45;1.23;;;27.30;98.40;;;;;;5004742;28;20263;-72
2023/07/26 08:16:53;;;;;;;2.72;1.70;;;26.60;97.70;;;;;;5010923;28;20184;-73
2023/07/26 08:19:19;;;;;;;1.98;1.20;;;26.30;98.40;;;;;;5011047;28;20255;-74
2023/07/26 08:21:44;;;;;;;2.33;1.17;;;26.90;98.20;;;;;;5007359;28;20209;-74
2023/07/26 08:24:10;;;;;;;3.03;1.17;;;27.70;97.80;;;;;;5009381;28;20209;-73
2023/07/26 08:26:35;;;;;;;2.60;1.60;;;27.90;97.30;;;;;;5007410;28;20225;-74
2023/07/26 08:29:01;;;;;;;4.65;1.15;;;27.20;97.60;;;;;;5017876;28;20679;-72
2023/07/26 08:31:27;;;;;;;1.88;1.20;;;26.40;98.50;;;;;;5021076;28;20605;-73
2023/07/26 08:33:53;;;;;;;1.60;1.02;;;27.10;98.60;;;;;;5007649;28;20205;-74
2023/07/26 08:36:18;;;;;;;3.40;1.38;;;27.50;97.60;;;;;;5005826;28;20216;-73
2023/07/26 08:38:44;;;;;;;2.67;1.40;;;27.50;97.90;;;;;;5003533;28;20229;-73
2023/07/26 08:41:10;;;;;;;1.85;1.20;;;28.10;97.30;;;;;;5002462;28;20278;-73
2023/07/26 08:43:39;;;;;;;2.78;1.52;;;28.10;96.90;;;;;;5002561;28;20230;-74
2023/07/26 08:46:08;;;;;;;1.92;1.20;;;27.80;96.70;;;;;;5002991;28;20225;-73
2023/07/26 08:48:36;;;;;;;2.60;1.42;;;27.50;97.30;;;;;;5000636;28;20222;-73
2023/07/26 08:51:02;;;;;;;2.45;1.35;;;27.20;97.70;;;;;;5002391;28;20229;-73
2023/07/26 08:53:28;;;;;;;4.00;1.60;;;26.10;98.70;;;;;;5008245;28;20889;-72
2023/07/26 08:55:54;;;;;;;2.97;1.40;;;25.90;99.90;;;;;;5009259;28;20179;-73
2023/07/26 08:58:19;;;;;;;5.28;1.30;;;26.20;99.90;;;;;;5017642;28;20189;-73
2023/07/26 09:00:47;;;;;;;4.35;1.73;;;26.50;99.40;;;;;;5021924;28;20708;-73
2023/07/26 09:03:13;;;;;;;3.15;1.88;;;26.10;99.70;;;;;;5007825;28;20223;-74
2023/07/26 09:05:39;;;;;;;2.15;1.33;;;25.60;99.90;;;;;;5005636;28;20258;-73
2023/07/26 09:08:05;;;;;;;2.58;1.38;;;25.10;99.90;;;;;;5008116;28;20197;-73
2023/07/26 09:10:31;;;;;;;3.33;1.45;;;25.40;99.70;;;;;;5002620;28;20203;-72
2023/07/26 09:13:14;;;;;;;2.30;1.42;;;25.90;99.10;;;;;;5005607;28;20683;-73
2023/07/26 09:15:42;;;;;;;4.22;1.30;;;26.70;98.50;;;;;;5002656;28;20237;-73
2023/07/26 09:18:08;;;;;;;2.25;1.60;;;27.80;97.40;;;;;;5004385;28;20240;-73
2023/07/26 09:20:35;;;;;;;2.47;1.50;;;28.40;96.40;;;;;;5000689;28;20304;-72
2023/07/26 09:23:09;;;;;;;2.58;1.00;;;28.50;94.90;;;;;;5016070;28;20185;-72
2023/07/26 09:25:45;;;;;;;3.22;1.15;;;28.70;94.60;;;;;;5014173;28;20276;-73
2023/07/26 09:28:12;;;;;;;5.20;1.38;;;27.00;95.00;;;;;;5002056;28;20220;-73
2023/07/26 09:30:51;;;;;;;1.83;1.30;;;26.30;97.00;;;;;;5009317;28;20224;-72
2023/07/26 09:33:17;;;;;;;6.30;1.90;;;25.40;98.30;;;;;;5017889;28;20216;-73
2023/07/26 09:35:52;;;;;;;2.85;1.25;;;24.80;99.60;;;;;;5008565;28;20216;-73
2023/07/26 09:38:22;;;;;;;2.17;1.38;;;24.30;99.90;;;;;;5008461;28;20239;-73
2023/07/26 09:40:48;;;;;;;2.92;1.50;;;24.40;99.90;;;;;;5005649;28;20300;-73
2023/07/26 09:43:31;;;;;;;2.75;1.40;;;24.80;99.90;;;;;;5009774;28;20644;-74
2023/07/26 09:46:02;;;;;;;3.15;1.85;;;25.40;99.90;;;;;;5004831;28;20588;-74
2023/07/26 09:48:27;;;;;;;3.95;2.45;;;25.30;99.80;;;;;;5003349;28;20251;-74
2023/07/26 09:50:55;;;;;;;2.92;1.10;;;25.00;99.90;;;;;;5004192;28;20209;-73
2023/07/26 09:53:23;;;;;;;3.65;1.33;;;24.60;99.90;;;;;;5003619;28;20216;-73
2023/07/26 09:55:49;;;;;;;2.55;1.40;;;24.70;99.80;;;;;;5002273;28;20205;-73
2023/07/26 09:58:17;;;;;;;1.90;1.30;;;25.00;99.60;;;;;;5003433;28;20215;-73
2023/07/26 10:00:46;;;;;;;3.70;1.77;;;24.80;99.80;;;;;;5000912;28;20220;-74
2023/07/26 10:03:15;;;;;;;3.83;1.48;;;24.60;99.90;;;;;;5001145;28;20209;-73
2023/07/26 10:05:48;;;;;;;4.03;1.10;;;24.40;99.90;;;;;;5002784;28;20642;-72
2023/07/26 10:08:14;;;;;;;2.05;1.30;;;24.10;99.90;;;;;;5007794;28;20307;-73
2023/07/26 10:10:41;;;;;;;2.35;1.38;;;24.00;99.90;;;;;;5008530;28;20204;-72
2023/07/26 10:13:09;;;;;;;5.20;2.67;;;24.50;99.90;;;;;;5008054;28;20721;-73
2023/07/26 10:15:36;;;;;;;2.25;1.58;;;25.20;99.90;;;;;;5005495;28;20224;-75
2023/07/26 10:18:02;;;;;;;1.83;1.38;;;25.60;99.00;;;;;;5002956;28;20204;-77
2023/07/26 10:20:28;;;;;;;2.60;1.50;;;25.90;98.70;;;;;;5000283;28;20213;-78
2023/07/26 10:23:00;;;;;;;2.53;1.33;;;25.70;98.80;;;;;;5004143;28;20180;-77
2023/07/26 10:25:28;;;;;;;1.70;1.17;;;25.80;99.40;;;;;;5008154;28;20673;-77
2023/07/26 10:27:54;;;;;;;5.28;1.55;;;25.90;99.00;;;;;;4996704;28;20217;-74
2023/07/26 10:30:20;;;;;;;3.55;1.23;;;25.70;98.30;;;;;;5015685;28;20311;-80
2023/07/26 10:32:49;;;;;;;3.53;1.40;;;25.60;97.80;;;;;;5006051;28;20629;-78
2023/07/26 10:35:32;;;;;;;3.05;1.90;;;25.70;98.10;;;;;;5012710;28;20648;-77
2023/07/26 10:38:00;;;;;;;6.22;1.65;;;25.70;98.40;;;;;;5011690;28;20184;-76
2023/07/26 10:40:38;;;;;;;2.80;1.30;;;25.50;98.60;;;;;;5003124;28;20201;-73
2023/07/26 10:43:21;;;;;;;3.88;1.80;;;25.10;98.70;;;;;;5002817;28;20224;-73
2023/07/26 10:45:54;;;;;;;2.78;1.45;;;25.40;99.50;;;;;;5020634;28;20197;-75
2023/07/26 10:48:39;;;;;;;2.60;1.70;;;25.40;98.90;;;;;;5004806;28;20272;-74
2023/07/26 10:51:49;;;;;;;2.53;1.80;;;25.70;98.10;;;;;;5012707;28;20259;-76
2023/07/26 10:54:44;;;;;;;3.03;1.55;;;25.50;97.50;;;;;;4955095;28;20245;-77
2023/07/26 10:57:20;;;;;;;3.92;1.58;;;25.20;97.70;;;;;;4999508;28;20209;-76
2023/07/26 10:59:55;;;;;;;4.20;1.38;;;25.10;97.90;;;;;;5024307;28;20219;-78
2023/07/26 11:02:43;;;;;;;3.78;1.77;;;25.00;98.10;;;;;;5013511;28;20355;-75
2023/07/26 11:05:19;;;;;;;2.20;1.25;;;24.70;99.20;;;;;;5015419;28;20600;-78
2023/07/26 11:08:14;;;;;;;2.53;1.23;;;24.60;99.20;;;;;;5012265;28;20202;-77
2023/07/26 11:10:50;;;;;;;2.83;1.42;;;24.60;99.60;;;;;;5006715;28;20292;-76
2023/07/26 11:13:18;;;;;;;2.90;1.60;;;24.50;99.30;;;;;;5013417;28;20208;-76
2023/07/26 11:15:45;;;;;;;2.97;1.67;;;24.40;99.30;;;;;;5011969;28;20217;-80
2023/07/26 11:18:11;;;;;;;6.28;2.17;;;24.40;99.80;;;;;;4997586;28;20204;-75
2023/07/26 11:20:52;;;;;;;3.25;1.73;;;24.20;99.90;;;;;;4997766;28;20271;-76
2023/07/26 11:23:23;;;;;;;2.67;1.95;;;23.80;99.70;;;;;;5000664;28;20208;-75
2023/07/26 11:25:51;;;;;;;3.50;2.08;;;23.50;99.90;;;;;;5006519;28;20272;-76
2023/07/26 11:28:17;;;;;;;2.67;1.80;;;23.10;99.90;;;;;;5001013;28;20220;-75
2023/07/26 11:30:51;;;;;;;2.97;2.13;;;22.70;99.90;;;;;;4999561;28;20272;-72
2023/07/26 11:33:38;;;;;;;3.10;1.70;;;22.50;99.90;;;;;;5005337;28;20229;-76
2023/07/26 11:36:05;;;;;;;6.57;1.80;;;22.30;99.90;;;;;;5002435;28;20316;-73
2023/07/26 11:38:31;;;;;;;4.65;2.00;;;22.30;99.90;;;;;;4995520;28;20221;-75
2023/07/26 11:40:57;;;;;;;3.53;1.83;;;22.70;99.90;;;;;;5006054;28;20191;-76
2023/07/26 11:43:27;;;;;;;3.40;1.55;;;23.30;99.90;;;;;;5014544;28;20194;-75
2023/07/26 11:45:54;;;;;;;5.40;1.42;;;23.60;99.90;;;;;;5008923;28;20873;-76
2023/07/26 11:48:20;;;;;;;2.05;1.48;;;24.00;99.90;;;;;;5006074;28;20231;-73
2023/07/26 11:50:46;;;;;;;2.47;1.58;;;24.10;99.90;;;;;;5006005;28;20206;-74
2023/07/26 11:53:14;;;;;;;4.30;2.00;;;24.10;99.90;;;;;;5002461;28;20213;-76
2023/07/26 11:55:42;;;;;;;5.50;1.80;;;24.00;99.90;;;;;;5010180;28;20208;-75
2023/07/26 11:58:11;;;;;;;3.60;1.40;;;23.70;99.90;;;;;;5006096;28;20209;-76
2023/07/26 12:00:46;;;;;;;2.25;1.52;;;23.20;99.90;;;;;;5001539;28;20563;-74
2023/07/26 12:03:12;;;;;;;3.30;1.73;;;23.00;99.90;;;;;;5004342;28;20212;-78
2023/07/26 12:05:44;;;;;;;2.65;1.45;;;23.00;99.90;;;;;;5025316;28;20236;-75
2023/07/26 12:08:11;;;;;;;3.05;1.77;;;22.90;99.90;;;;;;5024879;28;21123;-77
2023/07/26 12:10:40;;;;;;;3.50;1.70;;;22.90;99.90;;;;;;5003967;28;20202;-76
2023/07/26 12:13:08;;;;;;;3.53;1.63;;;23.20;99.90;;;;;;5005115;28;20213;-76
2023/07/26 12:15:59;;;;;;;2.88;1.90;;;23.40;99.90;;;;;;5006509;28;20280;-77
2023/07/26 12:18:26;;;;;;;8.60;4.57;;;23.80;99.90;;;;;;4997096;28;20236;-76
2023/07/26 12:20:59;;;;;;;9.48;4.47;;;23.80;99.90;;;;;;5004925;28;20213;-77
2023/07/26 12:23:26;;;;;;;2.83;1.85;;;23.80;99.90;;;;;;5004334;28;20217;-77
2023/07/26 12:25:54;;;;;;;2.67;1.50;;;23.90;99.90;;;;;;5007574;28;20272;-76
2023/07/26 12:28:20;;;;;;;2.33;1.40;;;23.90;99.90;;;;;;5003978;28;20252;-76
2023/07/26 12:30:56;;;;;;;4.47;1.70;;;23.70;99.90;;;;;;5011046;28;20240;-77
2023/07/26 12:33:23;;;;;;;2.95;1.58;;;23.80;99.90;;;;;;5007584;28;20998;-76
2023/07/26 12:35:52;;;;;;;4.30;2.45;;;23.60;99.90;;;;;;5015630;28;20228;-75
2023/07/26 12:38:18;;;;;;;5.82;1.42;;;23.80;99.90;;;;;;5003278;28;20297;-76
2023/07/26 12:40:44;;;;;;;2.88;1.52;;;24.10;99.90;;;;;;5003855;28;20309;-77
2023/07/26 12:43:27;;;;;;;2.78;1.42;;;24.20;99.90;;;;;;5009187;28;20220;-77
2023/07/26 12:45:57;;;;;;;4.20;1.88;;;24.10;99.90;;;;;;5022709;28;20219;-76
2023/07/26 12:48:24;;;;;;;3.15;1.38;;;24.30;99.90;;;;;;5004840;28;20221;-75
2023/07/26 12:50:53;;;;;;;2.38;1.67;;;24.30;99.90;;;;;;5003591;28;20708;-74